Time;durP1;ratioP1;P1;durP2;ratioP2;P2;SDS_P1;SDS_P2;PMS_P1;PMS_P2;Temp;Humidity;BMP_temperature;BMP_pressure;BME280_temperature;BME280_humidity;BME280_pressure;Samples;Min_cycle;Max_cycle;Signal;HPM_P1;HPM_P2
2023/03/08 00:01:31;;;;;;;9.23;5.63;;;;;;;-0.53;100.00;99300.44;7400746;19;20074;-68
2023/03/08 00:04:00;;;;;;;11.35;5.65;;;;;;;-0.55;100.00;99309.03;7398525;19;20497;-68
2023/03/08 00:06:29;;;;;;;9.18;5.60;;;;;;;-0.58;100.00;99309.03;7400520;19;20022;-68
2023/03/08 00:09:02;;;;;;;7.72;5.38;;;;;;;-0.60;100.00;99314.19;7400352;19;20085;-68
2023/03/08 00:11:31;;;;;;;8.38;5.38;;;;;;;-0.61;100.00;99312.44;7398348;19;20022;-69
2023/03/08 00:14:00;;;;;;;8.98;5.82;;;;;;;-0.64;100.00;99315.03;7398586;19;20018;-68
2023/03/08 00:16:28;;;;;;;12.15;6.20;;;;;;;-0.66;100.00;99316.75;7400138;19;20029;-69
2023/03/08 00:18:57;;;;;;;9.38;6.75;;;;;;;-0.67;100.00;99320.16;7399793;19;20066;-69
2023/03/08 00:21:25;;;;;;;9.43;6.32;;;;;;;-0.70;100.00;99322.75;7397586;19;20046;-68
2023/03/08 00:23:55;;;;;;;13.50;6.93;;;;;;;-0.73;100.00;99326.19;7398111;19;20424;-68
2023/03/08 00:26:26;;;;;;;12.05;6.88;;;;;;;-0.74;100.00;99326.19;7399481;19;20082;-68
2023/03/08 00:28:55;;;;;;;10.02;7.18;;;;;;;-0.77;100.00;99324.47;7399452;19;20078;-68
2023/03/08 00:31:23;;;;;;;14.27;7.80;;;;;;;-0.79;100.00;99330.47;7399467;19;20086;-69
2023/03/08 00:33:54;;;;;;;11.82;8.73;;;;;;;-0.81;100.00;99333.03;7397254;19;20023;-69
2023/03/08 00:36:23;;;;;;;16.23;9.20;;;;;;;-0.82;100.00;99333.91;7396943;19;20014;-69
2023/03/08 00:38:52;;;;;;;18.05;9.13;;;;;;;-0.83;100.00;99339.91;7397137;19;20021;-68
2023/03/08 00:41:20;;;;;;;11.82;8.00;;;;;;;-0.83;100.00;99345.06;7399050;19;20010;-68
2023/03/08 00:43:52;;;;;;;12.55;8.02;;;;;;;-0.86;100.00;99348.50;7397998;19;20430;-69
2023/03/08 00:46:20;;;;;;;11.63;7.78;;;;;;;-0.87;100.00;99351.91;7396675;19;20011;-69
2023/03/08 00:48:49;;;;;;;15.32;8.10;;;;;;;-0.88;100.00;99354.50;7399111;19;20023;-69
2023/03/08 00:51:19;;;;;;;14.93;8.48;;;;;;;-0.89;100.00;99348.47;7396965;19;20090;-69
2023/03/08 00:53:48;;;;;;;14.50;8.40;;;;;;;-0.88;100.00;99354.50;7397743;19;20022;-70
2023/03/08 00:56:16;;;;;;;12.52;8.13;;;;;;;-0.90;100.00;99353.63;7399053;19;20018;-69
2023/03/08 00:58:45;;;;;;;14.43;8.73;;;;;;;-0.90;100.00;99351.03;7398451;19;20077;-69
2023/03/08 01:01:18;;;;;;;17.05;9.20;;;;;;;-0.91;100.00;99360.50;7396605;19;20022;-69
2023/03/08 01:03:46;;;;;;;16.35;8.95;;;;;;;-0.91;100.00;99359.63;7396745;19;20033;-69
2023/03/08 01:06:16;;;;;;;14.45;9.20;;;;;;;-0.90;100.00;99363.91;7397605;19;20082;-70
2023/03/08 01:08:44;;;;;;;16.10;9.57;;;;;;;-0.89;100.00;99363.06;7398520;19;20018;-70
2023/03/08 01:11:18;;;;;;;14.52;8.90;;;;;;;-0.90;100.00;99356.19;7398357;19;20086;-69
2023/03/08 01:13:47;;;;;;;16.77;9.80;;;;;;;-0.90;100.00;99359.63;7397268;19;20074;-69
2023/03/08 01:16:23;;;;;;;16.30;8.82;;;;;;;-0.90;100.00;99357.03;7397898;19;20443;-69
2023/03/08 01:18:52;;;;;;;19.15;9.35;;;;;;;-0.91;100.00;99359.63;7398172;19;20031;-69
2023/03/08 01:21:20;;;;;;;17.05;9.30;;;;;;;-0.92;100.00;99353.63;7395856;19;20082;-68
2023/03/08 01:23:49;;;;;;;16.88;9.23;;;;;;;-0.92;100.00;99352.75;7396888;19;20036;-68
2023/03/08 01:26:18;;;;;;;16.02;9.43;;;;;;;-0.92;100.00;99365.63;7397658;19;20480;-68
2023/03/08 01:28:47;;;;;;;24.35;9.88;;;;;;;-0.94;100.00;99360.47;7396908;19;20548;-69
2023/03/08 01:31:18;;;;;;;12.45;8.73;;;;;;;-0.94;100.00;99364.78;7398275;19;20085;-68
2023/03/08 01:33:49;;;;;;;15.40;9.18;;;;;;;-0.96;100.00;99362.22;7396846;19;20018;-68
2023/03/08 01:36:20;;;;;;;12.93;8.77;;;;;;;-0.97;100.00;99363.06;7398129;19;20074;-68
2023/03/08 01:38:50;;;;;;;17.15;8.95;;;;;;;-1.01;100.00;99361.31;7397943;19;20066;-68
2023/03/08 01:41:21;;;;;;;14.30;8.88;;;;;;;-1.02;100.00;99360.47;7395742;19;20017;-69
2023/03/08 01:43:49;;;;;;;14.18;9.32;;;;;;;-1.03;100.00;99356.16;7395223;19;20510;-68
2023/03/08 01:46:25;;;;;;;12.82;8.15;;;;;;;-1.06;100.00;99360.44;7397341;19;20421;-69
2023/03/08 01:49:03;;;;;;;14.43;8.10;;;;;;;-1.08;100.00;99363.00;7395098;19;20027;-68
2023/03/08 01:51:37;;;;;;;12.10;8.20;;;;;;;-1.08;100.00;99372.47;7397459;19;20035;-68
2023/03/08 01:54:10;;;;;;;12.90;8.07;;;;;;;-1.11;100.00;99373.31;7396110;19;20074;-68
2023/03/08 01:56:40;;;;;;;15.27;7.95;;;;;;;-1.13;100.00;99371.59;7396614;19;20070;-68
2023/03/08 01:59:09;;;;;;;15.80;7.53;;;;;;;-1.14;100.00;99368.13;7397242;19;20082;-68
2023/03/08 02:01:38;;;;;;;11.90;7.50;;;;;;;-1.17;100.00;99387.00;7394594;19;20430;-68
2023/03/08 02:04:11;;;;;;;18.42;9.43;;;;;;;-1.21;100.00;99382.69;7395026;19;20501;-68
2023/03/08 02:06:39;;;;;;;12.70;6.82;;;;;;;-1.22;100.00;99380.97;7397027;19;20090;-69
2023/03/08 02:09:08;;;;;;;12.73;7.05;;;;;;;-1.24;100.00;99387.84;7396100;19;20018;-68
2023/03/08 02:11:38;;;;;;;11.48;7.50;;;;;;;-1.24;100.00;99382.69;7396452;19;20078;-68
2023/03/08 02:14:07;;;;;;;14.55;7.32;;;;;;;-1.25;100.00;99388.69;7396037;19;20082;-67
2023/03/08 02:16:35;;;;;;;16.40;6.78;;;;;;;-1.26;100.00;99386.09;7396323;19;20082;-67
2023/03/08 02:19:07;;;;;;;11.35;6.45;;;;;;;-1.24;100.00;99390.41;7394153;19;20070;-68
2023/03/08 02:21:38;;;;;;;11.23;6.40;;;;;;;-1.24;100.00;99397.25;7394656;19;20022;-68
2023/03/08 02:24:21;;;;;;;11.18;7.43;;;;;;;-1.23;100.00;99399.84;7395035;19;20070;-68
2023/03/08 02:26:50;;;;;;;9.68;6.15;;;;;;;-1.23;100.00;99391.28;7396012;19;20094;-68
2023/03/08 02:29:31;;;;;;;11.05;6.32;;;;;;;-1.22;100.00;99396.41;7393075;19;20066;-68
2023/03/08 02:32:00;;;;;;;9.73;5.93;;;;;;;-1.21;100.00;99390.41;7396376;19;20022;-68
2023/03/08 02:34:28;;;;;;;9.95;5.10;;;;;;;-1.20;100.00;99399.88;7394298;19;20083;-68
2023/03/08 02:36:57;;;;;;;13.82;6.95;;;;;;;-1.17;100.00;99399.03;7395357;19;20094;-68
2023/03/08 02:39:28;;;;;;;9.43;5.75;;;;;;;-1.17;100.00;99405.00;7395632;19;20078;-68
2023/03/08 02:41:57;;;;;;;11.18;5.88;;;;;;;-1.16;100.00;99396.44;7394274;19;20086;-67
2023/03/08 02:44:25;;;;;;;11.88;6.05;;;;;;;-1.13;100.00;99394.75;7393975;19;20098;-67
2023/03/08 02:46:54;;;;;;;11.05;6.60;;;;;;;-1.12;100.00;99396.47;7395353;19;20094;-67
2023/03/08 02:49:22;;;;;;;10.27;5.90;;;;;;;-1.11;100.00;99393.91;7394891;19;20430;-68
2023/03/08 02:51:51;;;;;;;8.68;5.53;;;;;;;-1.09;100.00;99387.03;7395287;19;20086;-68
2023/03/08 02:54:19;;;;;;;9.40;5.00;;;;;;;-1.06;100.00;99381.03;7393411;19;20553;-68
2023/03/08 02:56:50;;;;;;;11.55;7.35;;;;;;;-1.05;100.00;99385.31;7395143;19;20086;-68
2023/03/08 02:59:18;;;;;;;9.75;5.60;;;;;;;-1.04;100.00;99374.19;7393654;19;20074;-67
2023/03/08 03:01:47;;;;;;;7.85;6.45;;;;;;;-1.02;100.00;99375.06;7393285;19;20078;-68
2023/03/08 03:04:15;;;;;;;10.77;6.28;;;;;;;-1.01;100.00;99375.06;7394850;19;20026;-68
2023/03/08 03:06:44;;;;;;;11.38;6.93;;;;;;;-1.00;100.00;99375.91;7396747;19;20430;-68
2023/03/08 03:09:12;;;;;;;14.02;8.07;;;;;;;-1.00;100.00;99381.06;7396295;19;20074;-67
2023/03/08 03:11:42;;;;;;;14.95;9.13;;;;;;;-1.02;100.00;99385.34;7394825;19;20011;-67
2023/03/08 03:14:13;;;;;;;12.88;8.50;;;;;;;-1.01;100.00;99384.47;7393967;19;20073;-67
2023/03/08 03:16:42;;;;;;;11.35;7.85;;;;;;;-1.02;100.00;99385.34;7395120;19;20082;-67
2023/03/08 03:19:10;;;;;;;15.93;9.40;;;;;;;-1.01;99.95;99395.66;7394121;19;20081;-68
2023/03/08 03:21:40;;;;;;;14.77;9.20;;;;;;;-1.04;99.92;99394.78;7392795;19;20082;-68
2023/03/08 03:24:09;;;;;;;12.60;8.52;;;;;;;-1.02;100.00;99401.66;7392710;19;20420;-68
2023/03/08 03:26:38;;;;;;;17.52;9.88;;;;;;;-1.02;99.94;99409.38;7394294;19;20074;-68
2023/03/08 03:29:06;;;;;;;16.92;9.88;;;;;;;-1.02;99.84;99405.94;7395629;19;20086;-68
2023/03/08 03:31:37;;;;;;;16.35;9.20;;;;;;;-1.05;98.95;99401.66;7398655;19;20082;-67
2023/03/08 03:34:06;;;;;;;13.75;8.88;;;;;;;-1.03;98.26;99414.53;7399263;19;20549;-67
2023/03/08 03:36:35;;;;;;;12.25;7.93;;;;;;;-1.02;99.53;99411.94;7401104;19;20014;-68
2023/03/08 03:39:03;;;;;;;13.98;8.20;;;;;;;-1.00;99.95;99422.25;7400830;19;20484;-68
2023/03/08 03:41:32;;;;;;;14.77;8.88;;;;;;;-1.00;99.68;99427.41;7399366;19;20168;-67
2023/03/08 03:44:00;;;;;;;16.65;9.02;;;;;;;-1.00;99.04;99435.13;7399476;19;20074;-67
2023/03/08 03:46:29;;;;;;;18.92;8.52;;;;;;;-1.01;98.65;99429.13;7401323;19;20157;-67
2023/03/08 03:49:00;;;;;;;17.30;8.95;;;;;;;-1.01;98.03;99426.53;7401063;19;20422;-67
2023/03/08 03:51:29;;;;;;;16.10;10.30;;;;;;;-1.00;97.45;99428.28;7401363;19;20047;-67
2023/03/08 03:53:57;;;;;;;15.50;10.30;;;;;;;-1.00;97.42;99427.41;7398324;19;20022;-66
2023/03/08 03:56:28;;;;;;;16.33;10.05;;;;;;;-1.00;97.44;99438.56;7400527;19;20019;-67
2023/03/08 03:58:57;;;;;;;16.27;11.25;;;;;;;-0.98;97.60;99436.00;7400797;19;20083;-67
2023/03/08 04:01:27;;;;;;;14.30;10.52;;;;;;;-0.98;97.27;99443.72;7399038;19;20481;-67
2023/03/08 04:03:57;;;;;;;17.05;11.10;;;;;;;-0.97;97.15;99432.56;7398758;19;20502;-67
2023/03/08 04:06:30;;;;;;;19.65;11.90;;;;;;;-0.97;98.20;99427.41;7400212;19;20014;-67
2023/03/08 04:09:00;;;;;;;17.70;9.88;;;;;;;-0.98;98.18;99418.81;7400352;19;20082;-66
2023/03/08 04:11:33;;;;;;;15.82;10.48;;;;;;;-0.99;98.79;99426.53;7401133;19;20078;-68
2023/03/08 04:14:01;;;;;;;17.00;10.98;;;;;;;-1.00;99.27;99422.25;7397352;19;20553;-68
2023/03/08 04:16:31;;;;;;;19.92;11.30;;;;;;;-1.01;99.51;99425.66;7400917;19;20021;-68
2023/03/08 04:19:02;;;;;;;19.77;11.15;;;;;;;-1.02;100.00;99426.53;7400077;19;20069;-68
2023/03/08 04:21:33;;;;;;;21.95;11.15;;;;;;;-1.03;99.45;99427.41;7399095;19;20418;-68
2023/03/08 04:24:02;;;;;;;17.58;11.57;;;;;;;-1.06;99.78;99423.09;7398048;19;20477;-67
2023/03/08 04:26:30;;;;;;;17.77;11.77;;;;;;;-1.05;100.00;99437.69;7397519;19;20090;-68
2023/03/08 04:29:01;;;;;;;18.58;12.10;;;;;;;-1.07;97.48;99439.38;7399379;19;20014;-67
2023/03/08 04:31:31;;;;;;;21.30;12.80;;;;;;;-1.08;97.66;99429.09;7397418;19;20007;-68
2023/03/08 04:33:59;;;;;;;22.25;12.38;;;;;;;-1.09;98.88;99425.63;7397107;19;20032;-67
2023/03/08 04:36:28;;;;;;;18.83;12.25;;;;;;;-1.09;99.04;99437.66;7396888;19;20086;-68
2023/03/08 04:38:59;;;;;;;20.13;12.57;;;;;;;-1.09;100.00;99437.66;7399243;19;20078;-68
2023/03/08 04:41:28;;;;;;;18.35;12.02;;;;;;;-1.10;100.00;99434.25;7395866;19;20105;-68
2023/03/08 04:43:58;;;;;;;19.10;12.35;;;;;;;-1.11;100.00;99431.63;7396446;19;20022;-68
2023/03/08 04:46:29;;;;;;;19.05;13.02;;;;;;;-1.14;100.00;99422.19;7398939;19;20086;-68
2023/03/08 04:48:57;;;;;;;20.63;13.65;;;;;;;-1.17;100.00;99417.03;7399452;19;20082;-67
2023/03/08 04:51:27;;;;;;;19.73;13.32;;;;;;;-1.20;100.00;99417.88;7399055;19;20074;-68
2023/03/08 04:53:58;;;;;;;21.25;13.05;;;;;;;-1.22;100.00;99414.44;7397594;19;20078;-68
2023/03/08 04:56:27;;;;;;;19.70;13.25;;;;;;;-1.24;100.00;99425.56;7398381;19;20471;-68
2023/03/08 04:58:55;;;;;;;21.52;12.70;;;;;;;-1.28;100.00;99427.25;7398331;19;20078;-68
2023/03/08 05:01:25;;;;;;;21.90;14.13;;;;;;;-1.32;100.00;99430.69;7397275;19;20082;-68
2023/03/08 05:03:54;;;;;;;24.05;14.50;;;;;;;-1.35;100.00;99425.53;7397316;19;20019;-68
2023/03/08 05:06:26;;;;;;;20.17;13.65;;;;;;;-1.37;100.00;99429.81;7398498;19;20014;-67
2023/03/08 05:08:55;;;;;;;18.90;13.30;;;;;;;-1.43;100.00;99420.31;7398834;19;20015;-67
2023/03/08 05:11:28;;;;;;;23.75;16.00;;;;;;;-1.42;100.00;99423.78;7397945;19;20480;-68
2023/03/08 05:13:58;;;;;;;23.23;14.27;;;;;;;-1.44;100.00;99426.34;7397083;19;20078;-68
2023/03/08 05:16:27;;;;;;;22.73;14.02;;;;;;;-1.47;100.00;99434.03;7398607;19;20077;-68
2023/03/08 05:18:55;;;;;;;25.02;14.90;;;;;;;-1.49;100.00;99428.03;7397276;19;20082;-68
2023/03/08 05:21:25;;;;;;;25.83;14.80;;;;;;;-1.50;100.00;99434.88;7396652;19;20198;-68
2023/03/08 05:23:53;;;;;;;22.48;13.98;;;;;;;-1.51;100.00;99428.00;7396293;19;20019;-68
2023/03/08 05:26:23;;;;;;;25.60;15.52;;;;;;;-1.52;100.00;99433.97;7397807;19;20081;-68
2023/03/08 05:28:54;;;;;;;26.08;14.88;;;;;;;-1.51;100.00;99440.00;7395931;19;20014;-68
2023/03/08 05:31:24;;;;;;;23.45;13.88;;;;;;;-1.52;100.00;99439.13;7396229;19;20006;-68
2023/03/08 05:33:53;;;;;;;28.23;14.57;;;;;;;-1.53;100.00;99439.13;7396071;19;20056;-67
2023/03/08 05:36:22;;;;;;;23.55;14.02;;;;;;;-1.53;100.00;99428.84;7394965;19;20540;-67
2023/03/08 05:38:55;;;;;;;24.95;13.77;;;;;;;-1.54;100.00;99428.00;7397132;19;20074;-68
2023/03/08 05:41:23;;;;;;;20.55;13.02;;;;;;;-1.53;100.00;99431.41;7396632;19;20030;-67
2023/03/08 05:43:57;;;;;;;24.00;11.88;;;;;;;-1.54;100.00;99435.72;7395451;19;20082;-68
2023/03/08 05:46:25;;;;;;;21.50;11.73;;;;;;;-1.53;100.00;99433.97;7397163;19;20494;-67
2023/03/08 05:48:54;;;;;;;23.48;12.15;;;;;;;-1.52;100.00;99433.97;7396175;19;20066;-68
2023/03/08 05:51:22;;;;;;;17.58;10.82;;;;;;;-1.52;100.00;99438.28;7395672;19;20022;-68
2023/03/08 05:53:51;;;;;;;18.95;10.63;;;;;;;-1.52;100.00;99436.56;7395076;19;20019;-66
2023/03/08 05:56:21;;;;;;;19.90;11.70;;;;;;;-1.53;100.00;99437.44;7396522;19;20082;-68
2023/03/08 05:58:50;;;;;;;18.50;11.02;;;;;;;-1.53;100.00;99434.88;7396993;19;20082;-67
2023/03/08 06:01:24;;;;;;;21.08;10.93;;;;;;;-1.52;100.00;99444.28;7393849;19;20087;-68
2023/03/08 06:03:54;;;;;;;18.80;10.93;;;;;;;-1.52;100.00;99436.56;7394755;19;20083;-68
2023/03/08 06:06:25;;;;;;;18.40;10.50;;;;;;;-1.50;100.00;99446.88;7396461;19;20161;-67
2023/03/08 06:08:55;;;;;;;17.40;9.90;;;;;;;-1.50;100.00;99442.59;7394505;19;20022;-67
2023/03/08 06:11:24;;;;;;;19.95;11.52;;;;;;;-1.51;100.00;99434.88;7396869;19;20014;-67
2023/03/08 06:13:53;;;;;;;18.40;10.48;;;;;;;-1.49;100.00;99438.31;7395021;19;20023;-67
2023/03/08 06:16:24;;;;;;;16.67;10.40;;;;;;;-1.48;100.00;99445.16;7395454;19;20380;-67
2023/03/08 06:18:52;;;;;;;16.35;10.05;;;;;;;-1.48;100.00;99443.47;7393754;19;20399;-67
2023/03/08 06:21:22;;;;;;;17.63;9.52;;;;;;;-1.48;100.00;99443.47;7393072;19;20006;-68
2023/03/08 06:24:12;;;;;;;16.27;8.35;;;;;;;-1.46;100.00;99447.75;7394267;19;20018;-68
2023/03/08 06:26:41;;;;;;;18.83;9.00;;;;;;;-1.45;100.00;99449.47;7395155;19;20074;-67
2023/03/08 06:29:09;;;;;;;15.25;9.35;;;;;;;-1.44;100.00;99451.19;7392871;19;20520;-67
2023/03/08 06:31:47;;;;;;;24.02;12.88;;;;;;;-1.44;100.00;99449.50;7394414;19;20011;-68
2023/03/08 06:34:15;;;;;;;19.40;9.20;;;;;;;-1.42;100.00;99452.06;7394059;19;20098;-68
2023/03/08 06:36:44;;;;;;;17.30;9.48;;;;;;;-1.41;100.00;99451.22;7396083;19;20098;-69
2023/03/08 06:39:12;;;;;;;16.08;9.27;;;;;;;-1.40;100.00;99443.50;7395068;19;20158;-67
2023/03/08 06:41:47;;;;;;;13.98;9.23;;;;;;;-1.38;100.00;99441.81;7394390;19;20509;-68
2023/03/08 06:44:15;;;;;;;17.33;9.52;;;;;;;-1.36;100.00;99439.25;7393053;19;20533;-68
2023/03/08 06:46:46;;;;;;;13.60;9.25;;;;;;;-1.35;100.00;99431.53;7394914;19;20095;-67
2023/03/08 06:49:15;;;;;;;13.98;9.55;;;;;;;-1.33;100.00;99422.13;7392967;19;20504;-68
2023/03/08 06:51:43;;;;;;;16.58;9.77;;;;;;;-1.31;100.00;99428.09;7394770;19;20095;-68
2023/03/08 06:54:16;;;;;;;18.13;9.35;;;;;;;-1.28;100.00;99429.84;7393962;19;20098;-68
2023/03/08 06:56:44;;;;;;;16.50;9.27;;;;;;;-1.26;100.00;99435.88;7394398;19;20021;-66
2023/03/08 06:59:13;;;;;;;14.27;9.75;;;;;;;-1.24;100.00;99433.28;7394825;19;20091;-67
2023/03/08 07:01:41;;;;;;;16.52;9.35;;;;;;;-1.22;100.00;99429.88;7396728;19;20023;-68
2023/03/08 07:04:12;;;;;;;17.55;9.43;;;;;;;-1.18;100.00;99433.31;7394672;19;20576;-67
2023/03/08 07:06:41;;;;;;;16.98;10.00;;;;;;;-1.15;100.00;99439.34;7401707;19;20548;-67
2023/03/08 07:09:09;;;;;;;13.63;8.73;;;;;;;-1.11;100.00;99442.81;7401795;19;20015;-67
2023/03/08 07:11:38;;;;;;;19.25;9.50;;;;;;;-1.07;100.00;99448.84;7398629;19;20497;-67
2023/03/08 07:14:06;;;;;;;17.05;9.20;;;;;;;-1.03;100.00;99453.97;7399589;19;20074;-67
2023/03/08 07:16:35;;;;;;;15.48;9.52;;;;;;;-0.99;100.00;99455.75;7401714;19;20082;-67
2023/03/08 07:19:04;;;;;;;14.45;9.13;;;;;;;-0.94;100.00;99458.31;7401619;19;20078;-67
2023/03/08 07:21:36;;;;;;;13.27;9.02;;;;;;;-0.89;100.00;99455.78;7400715;19;20082;-67
2023/03/08 07:24:04;;;;;;;18.08;8.90;;;;;;;-0.86;100.00;99451.50;7399335;19;20014;-67
2023/03/08 07:26:33;;;;;;;16.27;9.63;;;;;;;-0.82;100.00;99458.38;7401310;19;20018;-68
2023/03/08 07:29:01;;;;;;;14.55;8.88;;;;;;;-0.76;100.00;99459.25;7400835;19;20451;-67
2023/03/08 07:31:37;;;;;;;12.70;7.35;;;;;;;-0.72;100.00;99458.41;7398808;19;20066;-67
2023/03/08 07:34:05;;;;;;;12.40;8.50;;;;;;;-0.68;100.00;99462.72;7400187;19;20025;-70
2023/03/08 07:36:38;;;;;;;15.88;8.80;;;;;;;-0.66;100.00;99469.59;7401163;19;20098;-69
2023/03/08 07:39:07;;;;;;;11.38;7.65;;;;;;;-0.62;100.00;99459.28;7401589;19;20019;-67
2023/03/08 07:41:35;;;;;;;15.40;8.63;;;;;;;-0.59;100.00;99467.06;7400953;19;20078;-68
2023/03/08 07:44:03;;;;;;;12.32;8.10;;;;;;;-0.57;100.00;99463.63;7400643;19;20078;-68
2023/03/08 07:46:32;;;;;;;12.93;8.60;;;;;;;-0.54;100.00;99463.63;7401100;19;20019;-67
2023/03/08 07:49:01;;;;;;;14.60;9.00;;;;;;;-0.51;100.00;99458.47;7401626;19;20032;-71
2023/03/08 07:51:29;;;;;;;13.40;9.35;;;;;;;-0.47;100.00;99461.06;7400988;19;20082;-67
2023/03/08 07:54:00;;;;;;;17.45;9.85;;;;;;;-0.44;100.00;99449.06;7398603;19;20070;-67
2023/03/08 07:56:28;;;;;;;14.70;9.93;;;;;;;-0.41;100.00;99446.47;7400822;19;20078;-66
2023/03/08 07:58:58;;;;;;;17.88;9.88;;;;;;;-0.35;100.00;99448.22;7400527;19;20102;-67
2023/03/08 08:01:27;;;;;;;15.55;9.82;;;;;;;-0.31;100.00;99449.94;7400811;19;20039;-65
2023/03/08 08:03:55;;;;;;;17.77;10.15;;;;;;;-0.26;100.00;99455.94;7397283;19;20019;-66
2023/03/08 08:06:24;;;;;;;15.55;9.63;;;;;;;-0.22;100.00;99449.94;7400184;19;20135;-66
2023/03/08 08:08:52;;;;;;;14.80;9.43;;;;;;;-0.18;100.00;99445.66;7400051;19;20077;-68
2023/03/08 08:11:23;;;;;;;16.00;10.10;;;;;;;-0.13;100.00;99449.09;7397743;19;20070;-68
2023/03/08 08:13:52;;;;;;;14.07;9.30;;;;;;;-0.09;100.00;99431.91;7397891;19;20074;-67
2023/03/08 08:16:21;;;;;;;14.43;9.98;;;;;;;-0.04;100.00;99443.06;7396740;19;20011;-68
2023/03/08 08:18:49;;;;;;;14.80;9.95;;;;;;;0.04;100.00;99436.22;7399373;19;20446;-68
2023/03/08 08:21:18;;;;;;;14.68;10.15;;;;;;;0.12;100.00;99439.63;7399830;19;20082;-68
2023/03/08 08:23:46;;;;;;;18.73;10.88;;;;;;;0.21;100.00;99430.19;7397611;19;20015;-68
2023/03/08 08:26:16;;;;;;;14.68;9.68;;;;;;;0.29;100.00;99437.06;7399512;19;20074;-67
2023/03/08 08:28:50;;;;;;;14.77;9.60;;;;;;;0.39;100.00;99434.47;7399722;19;20078;-67
2023/03/08 08:31:21;;;;;;;15.32;9.18;;;;;;;0.46;100.00;99431.88;7396525;19;20035;-66
2023/03/08 08:33:50;;;;;;;13.60;9.68;;;;;;;0.53;100.00;99424.13;7397363;19;20435;-67
2023/03/08 08:36:21;;;;;;;12.52;8.85;;;;;;;0.62;100.00;99426.66;7398979;19;20086;-67
2023/03/08 08:38:50;;;;;;;14.68;10.00;;;;;;;0.71;100.00;99418.91;7400375;19;20090;-66
2023/03/08 08:41:21;;;;;;;14.00;9.48;;;;;;;0.78;100.00;99415.47;7400051;19;20087;-68
2023/03/08 08:43:55;;;;;;;13.90;9.70;;;;;;;0.88;100.00;99418.00;7396112;19;20035;-68
2023/03/08 08:46:23;;;;;;;;;;;;;;;0.93;99.24;99408.50;7399330;19;20021;-69
2023/03/08 08:48:52;;;;;;;12.32;8.73;;;;;;;1.00;100.00;99412.81;7398844;19;19931;-68
2023/03/08 08:51:20;;;;;;;12.20;9.25;;;;;;;1.06;99.48;99409.31;7398638;19;20093;-67
2023/03/08 08:53:49;;;;;;;13.57;8.52;;;;;;;1.11;99.01;99407.56;7396926;19;20085;-69
2023/03/08 08:56:19;;;;;;;12.20;9.00;;;;;;;1.17;99.79;99397.22;7398550;19;20077;-69
2023/03/08 08:58:49;;;;;;;10.70;7.68;;;;;;;1.22;99.71;99400.63;7398327;19;20027;-69
2023/03/08 09:01:22;;;;;;;11.45;7.88;;;;;;;1.28;99.66;99397.16;7396538;19;20026;-69
2023/03/08 09:03:51;;;;;;;9.75;7.32;;;;;;;1.38;97.35;99400.53;7396507;19;20052;-68
2023/03/08 09:06:22;;;;;;;12.20;7.97;;;;;;;1.45;97.59;99392.75;7396502;19;20070;-69
2023/03/08 09:08:53;;;;;;;9.85;7.07;;;;;;;1.54;97.51;99389.25;7398484;19;20413;-69
2023/03/08 09:11:22;;;;;;;10.70;7.88;;;;;;;1.62;96.97;99390.06;7398027;19;20481;-69
2023/03/08 09:13:50;;;;;;;11.32;7.72;;;;;;;1.68;98.38;99381.41;7397439;19;20414;-69
2023/03/08 09:16:23;;;;;;;10.68;7.35;;;;;;;1.73;98.90;99371.88;7398187;19;20031;-69
2023/03/08 09:18:52;;;;;;;9.98;6.93;;;;;;;1.83;97.15;99364.88;7398462;19;20090;-69
2023/03/08 09:21:21;;;;;;;12.45;8.07;;;;;;;1.93;96.89;99376.03;7397676;19;20018;-69
2023/03/08 09:23:49;;;;;;;10.18;7.32;;;;;;;2.00;95.85;99371.66;7395302;19;20527;-68
2023/03/08 09:26:18;;;;;;;10.90;7.30;;;;;;;2.05;94.53;99375.06;7397651;19;20023;-68
2023/03/08 09:28:47;;;;;;;8.38;6.78;;;;;;;2.09;94.48;99369.00;7397111;19;20023;-69
2023/03/08 09:31:18;;;;;;;10.45;6.97;;;;;;;2.15;95.89;99365.47;7394217;19;20481;-68
2023/03/08 09:33:51;;;;;;;12.60;7.78;;;;;;;2.19;96.37;99359.44;7395043;19;20019;-68
2023/03/08 09:36:20;;;;;;;8.27;6.63;;;;;;;2.24;95.42;99361.06;7397254;19;20027;-68
2023/03/08 09:38:51;;;;;;;8.85;6.20;;;;;;;2.30;95.36;99362.75;7397172;19;20091;-69
2023/03/08 09:41:51;;;;;;;8.45;6.45;;;;;;;2.33;95.16;99367.91;7397232;19;20014;-69
2023/03/08 09:44:42;;;;;;;9.18;7.13;;;;;;;2.42;93.51;99367.78;7395259;19;20019;-68
2023/03/08 09:47:18;;;;;;;7.68;5.60;;;;;;;2.46;92.62;99354.81;7397485;19;20435;-68
2023/03/08 09:49:55;;;;;;;7.70;5.13;;;;;;;2.54;92.20;99353.88;7397162;19;20027;-68
2023/03/08 09:52:32;;;;;;;6.85;5.63;;;;;;;2.57;92.57;99356.41;7398098;19;20022;-68
2023/03/08 09:55:02;;;;;;;7.50;4.85;;;;;;;2.59;91.46;99353.78;7397298;19;20044;-69
2023/03/08 09:57:35;;;;;;;7.53;5.63;;;;;;;2.61;90.17;99350.31;7396637;19;20022;-69
2023/03/08 10:00:22;;;;;;;9.52;6.60;;;;;;;2.65;90.88;99351.13;7397090;19;20145;-68
2023/03/08 10:03:02;;;;;;;8.25;6.68;;;;;;;2.70;91.85;99345.91;7396292;19;20048;-68
2023/03/08 10:05:41;;;;;;;9.85;6.55;;;;;;;2.76;89.13;99340.66;7396890;19;20044;-68
2023/03/08 10:08:18;;;;;;;11.38;7.40;;;;;;;2.79;90.75;99343.19;7395115;19;20090;-70
2023/03/08 10:10:53;;;;;;;8.80;6.80;;;;;;;2.83;90.35;99336.25;7396221;19;20370;-67
2023/03/08 10:13:31;;;;;;;10.15;6.57;;;;;;;2.87;92.85;99328.44;7395096;19;20074;-68
2023/03/08 10:16:07;;;;;;;11.98;7.75;;;;;;;2.93;91.15;99332.66;7395663;19;20522;-68
2023/03/08 10:18:41;;;;;;;8.93;6.63;;;;;;;2.94;89.43;99336.97;7394116;19;20069;-70
2023/03/08 10:21:16;;;;;;;7.63;5.63;;;;;;;2.95;88.44;99328.34;7395792;19;20557;-68
2023/03/08 10:23:46;;;;;;;9.38;6.55;;;;;;;3.02;90.65;99342.94;7394940;19;20098;-69
2023/03/08 10:26:17;;;;;;;7.97;5.93;;;;;;;3.05;90.39;99327.31;7396561;19;20022;-69
2023/03/08 10:28:46;;;;;;;9.13;6.45;;;;;;;3.10;89.84;99327.28;7396604;19;20086;-69
2023/03/08 10:31:23;;;;;;;8.68;6.25;;;;;;;3.12;90.43;99319.47;7394835;19;20051;-69
2023/03/08 10:33:59;;;;;;;7.60;6.32;;;;;;;3.15;89.55;99329.81;7394455;19;20014;-67
2023/03/08 10:36:30;;;;;;;9.27;6.65;;;;;;;3.18;89.41;99311.59;7393759;19;20039;-68
2023/03/08 10:39:07;;;;;;;12.75;7.15;;;;;;;3.21;90.77;99306.38;7393417;19;20010;-68
2023/03/08 10:41:42;;;;;;;9.63;6.93;;;;;;;3.24;87.54;99306.34;7395589;19;20022;-70
2023/03/08 10:44:32;;;;;;;11.25;7.22;;;;;;;3.27;89.71;99311.47;7394092;19;20014;-68
2023/03/08 10:47:01;;;;;;;9.90;6.38;;;;;;;3.31;89.34;99305.38;7395525;19;20392;-69
2023/03/08 10:49:30;;;;;;;8.45;6.18;;;;;;;3.33;88.68;99301.00;7395236;19;20018;-68
2023/03/08 10:52:02;;;;;;;8.70;6.22;;;;;;;3.33;89.98;99294.97;7394762;19;20074;-68
2023/03/08 10:54:31;;;;;;;9.23;6.97;;;;;;;3.34;89.20;99292.34;7393785;19;20026;-68
2023/03/08 10:57:02;;;;;;;8.05;6.05;;;;;;;3.37;90.09;99292.28;7395175;19;20018;-68
2023/03/08 10:59:33;;;;;;;9.15;4.97;;;;;;;3.40;86.85;99287.06;7394599;19;20506;-67
2023/03/08 11:02:04;;;;;;;9.15;5.70;;;;;;;3.37;87.27;99286.25;7395287;19;20148;-69
2023/03/08 11:04:33;;;;;;;7.93;5.00;;;;;;;3.43;88.25;99291.34;7392998;19;20082;-68
2023/03/08 11:07:23;;;;;;;9.07;5.82;;;;;;;3.45;86.82;99287.00;7394491;19;20082;-69
2023/03/08 11:09:51;;;;;;;5.93;4.25;;;;;;;3.47;86.69;99276.59;7394734;19;20423;-69
2023/03/08 11:12:25;;;;;;;7.55;5.03;;;;;;;3.46;87.45;99264.50;7394016;19;20549;-68
2023/03/08 11:14:54;;;;;;;9.75;6.18;;;;;;;3.45;84.81;99268.00;7393149;19;20098;-68
2023/03/08 11:17:29;;;;;;;6.80;5.65;;;;;;;3.47;86.46;99263.63;7395765;19;20428;-67
2023/03/08 11:20:09;;;;;;;7.10;5.07;;;;;;;3.48;86.13;99255.00;7396105;19;20027;-67
2023/03/08 11:23:00;;;;;;;6.72;4.82;;;;;;;3.46;84.34;99251.56;7391541;19;20380;-68
2023/03/08 11:25:38;;;;;;;8.27;5.35;;;;;;;3.43;86.42;99239.50;7394527;19;20082;-68
2023/03/08 11:28:30;;;;;;;11.93;7.88;;;;;;;3.39;81.74;99241.28;7393205;19;20021;-68
2023/03/08 11:31:14;;;;;;;9.75;6.30;;;;;;;3.34;84.54;99239.66;7393687;19;20007;-68
2023/03/08 11:34:15;;;;;;;9.15;5.80;;;;;;;3.32;83.55;99225.84;7392796;19;20022;-69
2023/03/08 11:36:50;;;;;;;6.68;5.30;;;;;;;3.31;86.14;99229.31;7392112;19;20070;-68
2023/03/08 11:39:27;;;;;;;7.38;4.97;;;;;;;3.30;82.93;99220.72;7393481;19;20485;-67